sensor_id;sensor_type;location;lat;lon;timestamp;pressure;altitude;pressure_sealevel;temperature;humidity
79118;BME280;68523;51.336;-0.846;2024-03-06T00:00:00;100825.0;;;2.38;101.4
79118;BME280;68523;51.336;-0.846;2024-03-06T00:03:00;100835.0;;;2.60;101.5
79118;BME280;68523;51.336;-0.846;2024-03-06T00:06:00;100835.0;;;2.63;101.4
79118;BME280;68523;51.336;-0.846;2024-03-06T00:09:00;100835.0;;;2.43;101.3
79118;BME280;68523;51.336;-0.846;2024-03-06T00:12:00;100835.0;;;2.56;101.4
79118;BME280;68523;51.336;-0.846;2024-03-06T00:15:00;100835.0;;;2.44;101.3
79118;BME280;68523;51.336;-0.846;2024-03-06T00:18:00;100845.0;;;2.25;101.1
79118;BME280;68523;51.336;-0.846;2024-03-06T00:21:00;100845.0;;;2.25;101.2
79118;BME280;68523;51.336;-0.846;2024-03-06T00:24:00;100845.0;;;2.00;101.1
79118;BME280;68523;51.336;-0.846;2024-03-06T00:27:00;100855.0;;;1.96;101.3
79118;BME280;68523;51.336;-0.846;2024-03-06T00:30:00;100855.0;;;1.79;101.3
79118;BME280;68523;51.336;-0.846;2024-03-06T00:33:00;100855.0;;;1.97;101.6
79118;BME280;68523;51.336;-0.846;2024-03-06T00:36:00;100855.0;;;2.00;101.7
79118;BME280;68523;51.336;-0.846;2024-03-06T00:39:00;100855.0;;;1.88;101.6
79118;BME280;68523;51.336;-0.846;2024-03-06T00:42:00;100865.0;;;1.87;101.6
79118;BME280;68523;51.336;-0.846;2024-03-06T00:45:00;100865.0;;;1.98;101.7
79118;BME280;68523;51.336;-0.846;2024-03-06T00:48:00;100855.0;;;1.90;101.6
79118;BME280;68523;51.336;-0.846;2024-03-06T00:51:00;100855.0;;;1.67;101.4
79118;BME280;68523;51.336;-0.846;2024-03-06T00:54:00;100855.0;;;1.60;101.5
79118;BME280;68523;51.336;-0.846;2024-03-06T00:57:00;100855.0;;;1.56;101.5
79118;BME280;68523;51.336;-0.846;2024-03-06T01:00:00;100855.0;;;1.57;101.6
79118;BME280;68523;51.336;-0.846;2024-03-06T01:03:00;100855.0;;;1.57;101.7
79118;BME280;68523;51.336;-0.846;2024-03-06T01:06:00;100855.0;;;1.47;101.7
79118;BME280;68523;51.336;-0.846;2024-03-06T01:09:00;100855.0;;;1.43;101.7
79118;BME280;68523;51.336;-0.846;2024-03-06T01:12:00;100855.0;;;1.38;101.6
79118;BME280;68523;51.336;-0.846;2024-03-06T01:15:00;100855.0;;;1.51;101.7
79118;BME280;68523;51.336;-0.846;2024-03-06T01:18:00;100855.0;;;1.50;101.7
79118;BME280;68523;51.336;-0.846;2024-03-06T01:21:00;100865.0;;;1.52;101.8
79118;BME280;68523;51.336;-0.846;2024-03-06T01:24:00;100855.0;;;1.62;101.8
79118;BME280;68523;51.336;-0.846;2024-03-06T01:27:00;100855.0;;;1.64;101.8
79118;BME280;68523;51.336;-0.846;2024-03-06T01:30:00;100855.0;;;1.69;101.8
79118;BME280;68523;51.336;-0.846;2024-03-06T01:33:00;100865.0;;;1.32;101.5
79118;BME280;68523;51.336;-0.846;2024-03-06T01:36:00;100865.0;;;1.20;101.5
79118;BME280;68523;51.336;-0.846;2024-03-06T01:39:00;100865.0;;;1.25;101.8
79118;BME280;68523;51.336;-0.846;2024-03-06T01:42:00;100865.0;;;1.27;101.8
79118;BME280;68523;51.336;-0.846;2024-03-06T01:45:01;100855.0;;;1.33;101.9
79118;BME280;68523;51.336;-0.846;2024-03-06T01:48:00;100855.0;;;1.39;102.0
79118;BME280;68523;51.336;-0.846;2024-03-06T01:51:02;100855.0;;;1.41;102.0
79118;BME280;68523;51.336;-0.846;2024-03-06T01:54:01;100855.0;;;1.30;102.0
79118;BME280;68523;51.336;-0.846;2024-03-06T01:57:01;100855.0;;;1.26;101.9
79118;BME280;68523;51.336;-0.846;2024-03-06T02:00:00;100855.0;;;1.37;102.0
79118;BME280;68523;51.336;-0.846;2024-03-06T02:03:00;100865.0;;;1.55;102.1
79118;BME280;68523;51.336;-0.846;2024-03-06T02:06:02;100865.0;;;1.68;102.1
79118;BME280;68523;51.336;-0.846;2024-03-06T02:09:00;100865.0;;;1.70;102.1
79118;BME280;68523;51.336;-0.846;2024-03-06T02:12:00;100865.0;;;1.74;102.1
79118;BME280;68523;51.336;-0.846;2024-03-06T02:15:00;100855.0;;;1.70;101.9
79118;BME280;68523;51.336;-0.846;2024-03-06T02:18:04;100865.0;;;1.67;101.9
79118;BME280;68523;51.336;-0.846;2024-03-06T02:21:00;100865.0;;;1.43;101.7
79118;BME280;68523;51.336;-0.846;2024-03-06T02:24:01;100865.0;;;1.36;101.8
79118;BME280;68523;51.336;-0.846;2024-03-06T02:27:00;100865.0;;;1.24;101.9
79118;BME280;68523;51.336;-0.846;2024-03-06T02:30:00;100855.0;;;1.18;101.9
79118;BME280;68523;51.336;-0.846;2024-03-06T02:33:00;100855.0;;;1.16;102.0
79118;BME280;68523;51.336;-0.846;2024-03-06T02:36:00;100855.0;;;1.21;102.1
79118;BME280;68523;51.336;-0.846;2024-03-06T02:39:00;100855.0;;;1.24;102.1
79118;BME280;68523;51.336;-0.846;2024-03-06T02:42:00;100865.0;;;1.22;102.2
79118;BME280;68523;51.336;-0.846;2024-03-06T02:45:00;100865.0;;;1.41;102.3
79118;BME280;68523;51.336;-0.846;2024-03-06T02:48:00;100865.0;;;1.19;102.2
79118;BME280;68523;51.336;-0.846;2024-03-06T02:51:00;100865.0;;;1.06;102.2
79118;BME280;68523;51.336;-0.846;2024-03-06T02:54:00;100865.0;;;1.07;102.2
79118;BME280;68523;51.336;-0.846;2024-03-06T02:57:00;100865.0;;;0.99;102.2
79118;BME280;68523;51.336;-0.846;2024-03-06T03:00:00;100865.0;;;0.98;102.1
79118;BME280;68523;51.336;-0.846;2024-03-06T03:03:00;100855.0;;;1.19;102.2
79118;BME280;68523;51.336;-0.846;2024-03-06T03:06:00;100845.0;;;1.22;102.2
79118;BME280;68523;51.336;-0.846;2024-03-06T03:09:00;100845.0;;;1.15;102.2
79118;BME280;68523;51.336;-0.846;2024-03-06T03:12:00;100845.0;;;1.04;102.1
79118;BME280;68523;51.336;-0.846;2024-03-06T03:15:00;100855.0;;;0.90;102.0
79118;BME280;68523;51.336;-0.846;2024-03-06T03:18:00;100855.0;;;0.77;102.0
79118;BME280;68523;51.336;-0.846;2024-03-06T03:21:00;100865.0;;;0.67;102.0
79118;BME280;68523;51.336;-0.846;2024-03-06T03:24:00;100855.0;;;0.61;102.0
79118;BME280;68523;51.336;-0.846;2024-03-06T03:27:00;100855.0;;;0.59;102.0
79118;BME280;68523;51.336;-0.846;2024-03-06T03:30:00;100855.0;;;0.61;102.1
79118;BME280;68523;51.336;-0.846;2024-03-06T03:33:00;100855.0;;;0.72;102.2
79118;BME280;68523;51.336;-0.846;2024-03-06T03:36:00;100865.0;;;0.87;102.2
79118;BME280;68523;51.336;-0.846;2024-03-06T03:39:00;100865.0;;;0.55;102.0
79118;BME280;68523;51.336;-0.846;2024-03-06T03:42:00;100865.0;;;0.49;102.0
79118;BME280;68523;51.336;-0.846;2024-03-06T03:45:00;100865.0;;;0.45;102.0
79118;BME280;68523;51.336;-0.846;2024-03-06T03:48:00;100865.0;;;0.41;102.0
79118;BME280;68523;51.336;-0.846;2024-03-06T03:51:01;100855.0;;;0.38;102.1
79118;BME280;68523;51.336;-0.846;2024-03-06T03:54:00;100855.0;;;0.46;102.1
79118;BME280;68523;51.336;-0.846;2024-03-06T03:57:00;100855.0;;;0.38;102.1
79118;BME280;68523;51.336;-0.846;2024-03-06T04:00:00;100865.0;;;0.51;102.1
79118;BME280;68523;51.336;-0.846;2024-03-06T04:03:00;100865.0;;;0.64;102.2
79118;BME280;68523;51.336;-0.846;2024-03-06T04:06:00;100855.0;;;0.59;102.2
79118;BME280;68523;51.336;-0.846;2024-03-06T04:09:00;100855.0;;;0.19;102.0
79118;BME280;68523;51.336;-0.846;2024-03-06T04:12:00;100865.0;;;0.06;102.0
79118;BME280;68523;51.336;-0.846;2024-03-06T04:15:00;100865.0;;;-0.01;102.0
79118;BME280;68523;51.336;-0.846;2024-03-06T04:18:00;100865.0;;;-0.03;102.0
79118;BME280;68523;51.336;-0.846;2024-03-06T04:21:02;100865.0;;;0.13;102.1
79118;BME280;68523;51.336;-0.846;2024-03-06T04:24:00;100865.0;;;0.21;102.2
79118;BME280;68523;51.336;-0.846;2024-03-06T04:27:00;100865.0;;;0.38;102.2
79118;BME280;68523;51.336;-0.846;2024-03-06T04:30:00;100865.0;;;0.34;102.2
79118;BME280;68523;51.336;-0.846;2024-03-06T04:33:00;100865.0;;;0.28;102.1
79118;BME280;68523;51.336;-0.846;2024-03-06T04:36:01;100865.0;;;0.28;102.1
79118;BME280;68523;51.336;-0.846;2024-03-06T04:39:00;100865.0;;;0.27;102.1
79118;BME280;68523;51.336;-0.846;2024-03-06T04:42:00;100865.0;;;0.36;102.2
79118;BME280;68523;51.336;-0.846;2024-03-06T04:45:00;100865.0;;;0.43;102.2
79118;BME280;68523;51.336;-0.846;2024-03-06T04:48:00;100875.0;;;0.10;102.1
79118;BME280;68523;51.336;-0.846;2024-03-06T04:51:00;100875.0;;;-0.05;102.0
79118;BME280;68523;51.336;-0.846;2024-03-06T04:54:00;100875.0;;;-0.07;102.0
79118;BME280;68523;51.336;-0.846;2024-03-06T04:57:00;100885.0;;;-0.07;102.2
79118;BME280;68523;51.336;-0.846;2024-03-06T05:00:00;100885.0;;;0.01;102.3
79118;BME280;68523;51.336;-0.846;2024-03-06T05:03:00;100885.0;;;0.03;102.4
79118;BME280;68523;51.336;-0.846;2024-03-06T05:06:00;100885.0;;;0.06;102.4
79118;BME280;68523;51.336;-0.846;2024-03-06T05:09:00;100885.0;;;0.06;102.5
79118;BME280;68523;51.336;-0.846;2024-03-06T05:12:00;100895.0;;;0.01;102.6
79118;BME280;68523;51.336;-0.846;2024-03-06T05:15:00;100905.0;;;-0.05;102.7
79118;BME280;68523;51.336;-0.846;2024-03-06T05:18:00;100905.0;;;0.01;102.8
79118;BME280;68523;51.336;-0.846;2024-03-06T05:21:00;100905.0;;;0.09;102.9
79118;BME280;68523;51.336;-0.846;2024-03-06T05:24:00;100905.0;;;0.07;102.9
79118;BME280;68523;51.336;-0.846;2024-03-06T05:27:00;100915.0;;;0.14;102.9
79118;BME280;68523;51.336;-0.846;2024-03-06T05:30:00;100925.0;;;0.25;103.0
79118;BME280;68523;51.336;-0.846;2024-03-06T05:33:00;100925.0;;;0.29;103.0
79118;BME280;68523;51.336;-0.846;2024-03-06T05:36:00;100925.0;;;0.31;103.0
79118;BME280;68523;51.336;-0.846;2024-03-06T05:39:00;100925.0;;;0.35;103.0
79118;BME280;68523;51.336;-0.846;2024-03-06T05:42:01;100935.0;;;0.38;103.0
79118;BME280;68523;51.336;-0.846;2024-03-06T05:45:00;100935.0;;;0.39;103.0
79118;BME280;68523;51.336;-0.846;2024-03-06T05:48:00;100955.0;;;0.37;103.0
79118;BME280;68523;51.336;-0.846;2024-03-06T05:51:00;100955.0;;;0.39;103.0
79118;BME280;68523;51.336;-0.846;2024-03-06T05:54:00;100945.0;;;0.46;103.0
79118;BME280;68523;51.336;-0.846;2024-03-06T05:57:00;100945.0;;;0.52;103.0
79118;BME280;68523;51.336;-0.846;2024-03-06T06:00:00;100945.0;;;0.44;103.0
79118;BME280;68523;51.336;-0.846;2024-03-06T06:03:00;100955.0;;;0.34;103.0
79118;BME280;68523;51.336;-0.846;2024-03-06T06:06:00;100955.0;;;0.40;103.0
79118;BME280;68523;51.336;-0.846;2024-03-06T06:09:00;100955.0;;;0.40;103.0
79118;BME280;68523;51.336;-0.846;2024-03-06T06:12:00;100965.0;;;0.46;103.0
79118;BME280;68523;51.336;-0.846;2024-03-06T06:15:00;100965.0;;;0.48;103.0
79118;BME280;68523;51.336;-0.846;2024-03-06T06:18:00;100965.0;;;0.48;103.0
79118;BME280;68523;51.336;-0.846;2024-03-06T06:21:00;100965.0;;;0.58;103.1
79118;BME280;68523;51.336;-0.846;2024-03-06T06:24:00;100965.0;;;0.47;103.0
79118;BME280;68523;51.336;-0.846;2024-03-06T06:27:00;100965.0;;;0.56;103.1
79118;BME280;68523;51.336;-0.846;2024-03-06T06:30:00;100965.0;;;0.40;103.0
79118;BME280;68523;51.336;-0.846;2024-03-06T06:33:00;100975.0;;;0.34;103.0
79118;BME280;68523;51.336;-0.846;2024-03-06T06:36:00;100975.0;;;0.35;103.0
79118;BME280;68523;51.336;-0.846;2024-03-06T06:39:00;100985.0;;;0.48;103.0
79118;BME280;68523;51.336;-0.846;2024-03-06T06:42:00;100985.0;;;0.61;103.1
79118;BME280;68523;51.336;-0.846;2024-03-06T06:45:01;100975.0;;;0.73;103.1
79118;BME280;68523;51.336;-0.846;2024-03-06T06:48:00;100985.0;;;0.84;103.1
79118;BME280;68523;51.336;-0.846;2024-03-06T06:51:00;100985.0;;;0.91;103.2
79118;BME280;68523;51.336;-0.846;2024-03-06T06:54:00;100985.0;;;0.99;103.2
79118;BME280;68523;51.336;-0.846;2024-03-06T06:57:00;100985.0;;;1.06;103.2
79118;BME280;68523;51.336;-0.846;2024-03-06T07:00:00;100985.0;;;1.15;103.2
79118;BME280;68523;51.336;-0.846;2024-03-06T07:03:00;100995.0;;;1.24;103.3
79118;BME280;68523;51.336;-0.846;2024-03-06T07:06:00;100995.0;;;1.24;103.3
79118;BME280;68523;51.336;-0.846;2024-03-06T07:09:00;100995.0;;;1.32;103.3
79118;BME280;68523;51.336;-0.846;2024-03-06T07:12:00;101005.0;;;1.41;103.3
79118;BME280;68523;51.336;-0.846;2024-03-06T07:15:00;101005.0;;;1.49;103.3
79118;BME280;68523;51.336;-0.846;2024-03-06T07:18:00;101005.0;;;1.57;103.4
79118;BME280;68523;51.336;-0.846;2024-03-06T07:21:00;101015.0;;;1.60;103.4
79118;BME280;68523;51.336;-0.846;2024-03-06T07:24:00;101005.0;;;1.66;103.4
79118;BME280;68523;51.336;-0.846;2024-03-06T07:27:00;101005.0;;;1.68;103.4
79118;BME280;68523;51.336;-0.846;2024-03-06T07:30:01;101015.0;;;1.79;103.4
79118;BME280;68523;51.336;-0.846;2024-03-06T07:33:00;101015.0;;;1.91;103.5
79118;BME280;68523;51.336;-0.846;2024-03-06T07:36:00;101015.0;;;2.02;103.5
79118;BME280;68523;51.336;-0.846;2024-03-06T07:39:00;101025.0;;;2.15;103.6
79118;BME280;68523;51.336;-0.846;2024-03-06T07:42:00;101025.0;;;2.26;103.6
79118;BME280;68523;51.336;-0.846;2024-03-06T07:45:01;101015.0;;;2.19;103.6
79118;BME280;68523;51.336;-0.846;2024-03-06T07:48:00;101015.0;;;2.24;103.5
79118;BME280;68523;51.336;-0.846;2024-03-06T07:51:00;101015.0;;;2.26;103.5
79118;BME280;68523;51.336;-0.846;2024-03-06T07:54:00;101025.0;;;2.32;103.5
79118;BME280;68523;51.336;-0.846;2024-03-06T07:57:00;101025.0;;;2.33;103.5
79118;BME280;68523;51.336;-0.846;2024-03-06T08:00:01;101025.0;;;2.42;103.5
79118;BME280;68523;51.336;-0.846;2024-03-06T08:03:00;101025.0;;;2.45;103.5
79118;BME280;68523;51.336;-0.846;2024-03-06T08:06:00;101025.0;;;2.64;103.4
79118;BME280;68523;51.336;-0.846;2024-03-06T08:09:00;101025.0;;;2.80;103.4
79118;BME280;68523;51.336;-0.846;2024-03-06T08:12:00;101025.0;;;3.04;103.3
79118;BME280;68523;51.336;-0.846;2024-03-06T08:15:00;101025.0;;;3.18;103.3
79118;BME280;68523;51.336;-0.846;2024-03-06T08:18:00;101035.0;;;3.30;103.2
79118;BME280;68523;51.336;-0.846;2024-03-06T08:21:01;101035.0;;;3.52;103.2
79118;BME280;68523;51.336;-0.846;2024-03-06T08:24:00;101045.0;;;3.31;103.0
79118;BME280;68523;51.336;-0.846;2024-03-06T08:27:00;101045.0;;;3.48;103.0
79118;BME280;68523;51.336;-0.846;2024-03-06T08:30:00;101045.0;;;3.54;103.0
79118;BME280;68523;51.336;-0.846;2024-03-06T08:33:00;101055.0;;;3.78;102.9
79118;BME280;68523;51.336;-0.846;2024-03-06T08:36:00;101055.0;;;3.67;102.7
79118;BME280;68523;51.336;-0.846;2024-03-06T08:39:00;101055.0;;;3.39;102.5
79118;BME280;68523;51.336;-0.846;2024-03-06T08:42:00;101055.0;;;3.55;102.8
79118;BME280;68523;51.336;-0.846;2024-03-06T08:45:00;101055.0;;;3.50;102.8
79118;BME280;68523;51.336;-0.846;2024-03-06T08:48:00;101055.0;;;3.40;102.8
79118;BME280;68523;51.336;-0.846;2024-03-06T08:51:00;101065.0;;;3.43;102.8
79118;BME280;68523;51.336;-0.846;2024-03-06T08:54:00;101065.0;;;3.50;102.8
79118;BME280;68523;51.336;-0.846;2024-03-06T08:57:00;101065.0;;;3.62;102.8
79118;BME280;68523;51.336;-0.846;2024-03-06T09:00:00;101075.0;;;3.76;102.6
79118;BME280;68523;51.336;-0.846;2024-03-06T09:03:00;101085.0;;;3.54;102.6
79118;BME280;68523;51.336;-0.846;2024-03-06T09:06:00;101075.0;;;3.71;102.8
79118;BME280;68523;51.336;-0.846;2024-03-06T09:09:00;101075.0;;;3.85;102.7
79118;BME280;68523;51.336;-0.846;2024-03-06T09:12:00;101075.0;;;4.17;102.7
79118;BME280;68523;51.336;-0.846;2024-03-06T09:15:01;101085.0;;;4.24;102.5
79118;BME280;68523;51.336;-0.846;2024-03-06T09:18:00;101085.0;;;4.29;102.4
79118;BME280;68523;51.336;-0.846;2024-03-06T09:21:00;101095.0;;;4.28;102.3
79118;BME280;68523;51.336;-0.846;2024-03-06T09:24:00;101095.0;;;4.23;102.2
79118;BME280;68523;51.336;-0.846;2024-03-06T09:27:00;101095.0;;;4.45;102.4
79118;BME280;68523;51.336;-0.846;2024-03-06T09:30:00;101095.0;;;4.19;102.4
79118;BME280;68523;51.336;-0.846;2024-03-06T09:33:00;101095.0;;;4.35;102.5
79118;BME280;68523;51.336;-0.846;2024-03-06T09:36:00;101095.0;;;4.54;102.5
79118;BME280;68523;51.336;-0.846;2024-03-06T09:39:00;101105.0;;;4.66;102.5
79118;BME280;68523;51.336;-0.846;2024-03-06T09:42:00;101105.0;;;4.81;102.4
79118;BME280;68523;51.336;-0.846;2024-03-06T09:45:00;101105.0;;;4.96;101.8
79118;BME280;68523;51.336;-0.846;2024-03-06T09:48:00;101105.0;;;4.87;101.4
79118;BME280;68523;51.336;-0.846;2024-03-06T09:51:01;101105.0;;;5.06;101.4
79118;BME280;68523;51.336;-0.846;2024-03-06T09:54:00;101115.0;;;5.11;101.5
79118;BME280;68523;51.336;-0.846;2024-03-06T09:57:00;101115.0;;;5.05;101.4
79118;BME280;68523;51.336;-0.846;2024-03-06T10:00:00;101115.0;;;5.02;101.1
79118;BME280;68523;51.336;-0.846;2024-03-06T10:03:02;101115.0;;;5.44;101.5
79118;BME280;68523;51.336;-0.846;2024-03-06T10:06:00;101115.0;;;5.62;100.5
79118;BME280;68523;51.336;-0.846;2024-03-06T10:09:04;101115.0;;;5.68;100.5
79118;BME280;68523;51.336;-0.846;2024-03-06T10:12:00;101115.0;;;5.91;100.7
79118;BME280;68523;51.336;-0.846;2024-03-06T10:15:00;101115.0;;;6.14;100.5
79118;BME280;68523;51.336;-0.846;2024-03-06T10:21:00;101125.0;;;5.82;100.1
79118;BME280;68523;51.336;-0.846;2024-03-06T10:24:00;101125.0;;;6.01;100.7
79118;BME280;68523;51.336;-0.846;2024-03-06T10:27:00;101125.0;;;5.88;100.4
79118;BME280;68523;51.336;-0.846;2024-03-06T10:30:01;101125.0;;;5.98;100.1
79118;BME280;68523;51.336;-0.846;2024-03-06T10:33:00;101125.0;;;6.08;100.0
79118;BME280;68523;51.336;-0.846;2024-03-06T10:36:00;101125.0;;;6.14;99.6
79118;BME280;68523;51.336;-0.846;2024-03-06T10:39:01;101125.0;;;6.73;99.3
79118;BME280;68523;51.336;-0.846;2024-03-06T10:42:02;101125.0;;;7.93;95.9
79118;BME280;68523;51.336;-0.846;2024-03-06T10:45:01;101125.0;;;7.28;96.7
79118;BME280;68523;51.336;-0.846;2024-03-06T10:48:00;101125.0;;;7.15;96.4
79118;BME280;68523;51.336;-0.846;2024-03-06T10:51:00;101125.0;;;7.23;96.7
79118;BME280;68523;51.336;-0.846;2024-03-06T10:54:00;101135.0;;;6.92;96.4
79118;BME280;68523;51.336;-0.846;2024-03-06T10:57:01;101135.0;;;7.08;95.6
79118;BME280;68523;51.336;-0.846;2024-03-06T11:00:01;101135.0;;;7.46;95.4
79118;BME280;68523;51.336;-0.846;2024-03-06T11:03:01;101135.0;;;7.62;93.8
79118;BME280;68523;51.336;-0.846;2024-03-06T11:06:00;101135.0;;;7.80;93.8
79118;BME280;68523;51.336;-0.846;2024-03-06T11:09:00;101135.0;;;8.15;91.8
79118;BME280;68523;51.336;-0.846;2024-03-06T11:12:00;101125.0;;;8.66;90.8
79118;BME280;68523;51.336;-0.846;2024-03-06T11:15:00;101125.0;;;7.89;92.8
79118;BME280;68523;51.336;-0.846;2024-03-06T11:27:01;101135.0;;;8.91;89.1
79118;BME280;68523;51.336;-0.846;2024-03-06T11:30:06;101135.0;;;8.62;90.1
79118;BME280;68523;51.336;-0.846;2024-03-06T11:33:00;101145.0;;;8.88;88.3
79118;BME280;68523;51.336;-0.846;2024-03-06T11:39:03;101145.0;;;10.10;85.9
79118;BME280;68523;51.336;-0.846;2024-03-06T11:42:00;101145.0;;;11.12;81.0
79118;BME280;68523;51.336;-0.846;2024-03-06T11:48:01;101155.0;;;11.29;82.4
79118;BME280;68523;51.336;-0.846;2024-03-06T11:51:01;101155.0;;;10.41;82.2
79118;BME280;68523;51.336;-0.846;2024-03-06T11:54:00;101155.0;;;11.05;81.9
79118;BME280;68523;51.336;-0.846;2024-03-06T11:57:01;101155.0;;;10.66;81.2
79118;BME280;68523;51.336;-0.846;2024-03-06T12:00:02;101155.0;;;11.71;78.7
79118;BME280;68523;51.336;-0.846;2024-03-06T12:03:00;101145.0;;;11.92;79.5
79118;BME280;68523;51.336;-0.846;2024-03-06T12:06:00;101145.0;;;12.01;77.8
79118;BME280;68523;51.336;-0.846;2024-03-06T12:09:00;101145.0;;;11.64;79.7
79118;BME280;68523;51.336;-0.846;2024-03-06T12:12:00;101145.0;;;11.78;78.2
79118;BME280;68523;51.336;-0.846;2024-03-06T12:15:03;101155.0;;;12.13;76.3
79118;BME280;68523;51.336;-0.846;2024-03-06T12:18:00;101155.0;;;12.68;75.0
79118;BME280;68523;51.336;-0.846;2024-03-06T12:21:01;101155.0;;;10.84;79.0
79118;BME280;68523;51.336;-0.846;2024-03-06T12:24:03;101155.0;;;12.65;76.6
79118;BME280;68523;51.336;-0.846;2024-03-06T12:27:02;101155.0;;;11.41;75.0
79118;BME280;68523;51.336;-0.846;2024-03-06T12:30:00;101155.0;;;10.73;80.2
79118;BME280;68523;51.336;-0.846;2024-03-06T12:33:00;101155.0;;;11.20;75.8
79118;BME280;68523;51.336;-0.846;2024-03-06T12:36:03;101155.0;;;12.05;73.7
79118;BME280;68523;51.336;-0.846;2024-03-06T12:39:02;101145.0;;;12.57;74.9
79118;BME280;68523;51.336;-0.846;2024-03-06T12:42:00;101145.0;;;12.52;72.5
79118;BME280;68523;51.336;-0.846;2024-03-06T12:45:00;101145.0;;;12.71;72.2
79118;BME280;68523;51.336;-0.846;2024-03-06T12:48:00;101145.0;;;13.26;71.9
79118;BME280;68523;51.336;-0.846;2024-03-06T12:51:00;101145.0;;;12.71;71.5
79118;BME280;68523;51.336;-0.846;2024-03-06T12:54:01;101135.0;;;12.39;73.2
79118;BME280;68523;51.336;-0.846;2024-03-06T12:57:00;101135.0;;;12.67;73.5
79118;BME280;68523;51.336;-0.846;2024-03-06T13:00:00;101135.0;;;12.48;72.7
79118;BME280;68523;51.336;-0.846;2024-03-06T13:03:00;101135.0;;;12.55;72.4
79118;BME280;68523;51.336;-0.846;2024-03-06T13:06:00;101135.0;;;12.47;70.6
79118;BME280;68523;51.336;-0.846;2024-03-06T13:09:00;101135.0;;;12.67;71.3
79118;BME280;68523;51.336;-0.846;2024-03-06T13:12:00;101135.0;;;13.13;69.9
79118;BME280;68523;51.336;-0.846;2024-03-06T13:15:00;101125.0;;;13.30;70.4
79118;BME280;68523;51.336;-0.846;2024-03-06T13:18:00;101125.0;;;13.84;66.8
79118;BME280;68523;51.336;-0.846;2024-03-06T13:21:00;101135.0;;;11.60;74.1
79118;BME280;68523;51.336;-0.846;2024-03-06T13:24:00;101125.0;;;12.68;70.8
79118;BME280;68523;51.336;-0.846;2024-03-06T13:27:00;101125.0;;;11.53;73.1
79118;BME280;68523;51.336;-0.846;2024-03-06T13:30:00;101125.0;;;11.09;75.9
79118;BME280;68523;51.336;-0.846;2024-03-06T13:33:00;101125.0;;;10.51;75.1
79118;BME280;68523;51.336;-0.846;2024-03-06T13:36:00;101125.0;;;10.68;77.1
79118;BME280;68523;51.336;-0.846;2024-03-06T13:39:00;101125.0;;;10.74;76.9
79118;BME280;68523;51.336;-0.846;2024-03-06T13:42:00;101125.0;;;11.42;74.3
79118;BME280;68523;51.336;-0.846;2024-03-06T13:45:00;101125.0;;;11.85;71.0
79118;BME280;68523;51.336;-0.846;2024-03-06T13:48:00;101125.0;;;11.90;71.9
79118;BME280;68523;51.336;-0.846;2024-03-06T13:51:00;101125.0;;;11.64;73.3
79118;BME280;68523;51.336;-0.846;2024-03-06T13:54:00;101125.0;;;10.92;74.6
79118;BME280;68523;51.336;-0.846;2024-03-06T13:57:00;101125.0;;;11.24;75.1
79118;BME280;68523;51.336;-0.846;2024-03-06T14:00:00;101125.0;;;11.59;73.2
79118;BME280;68523;51.336;-0.846;2024-03-06T14:03:00;101125.0;;;11.58;76.6
79118;BME280;68523;51.336;-0.846;2024-03-06T14:06:00;101125.0;;;11.57;73.2
79118;BME280;68523;51.336;-0.846;2024-03-06T14:09:00;101125.0;;;11.62;73.1
79118;BME280;68523;51.336;-0.846;2024-03-06T14:12:00;101125.0;;;11.50;72.1
79118;BME280;68523;51.336;-0.846;2024-03-06T14:15:00;101125.0;;;11.52;72.0
79118;BME280;68523;51.336;-0.846;2024-03-06T14:18:00;101125.0;;;11.39;72.0
79118;BME280;68523;51.336;-0.846;2024-03-06T14:21:00;101125.0;;;11.55;72.1
79118;BME280;68523;51.336;-0.846;2024-03-06T14:24:00;101125.0;;;11.56;72.8
79118;BME280;68523;51.336;-0.846;2024-03-06T14:27:00;101125.0;;;11.42;73.1
79118;BME280;68523;51.336;-0.846;2024-03-06T14:30:00;101125.0;;;11.40;71.8
79118;BME280;68523;51.336;-0.846;2024-03-06T14:33:00;101125.0;;;11.53;72.2
79118;BME280;68523;51.336;-0.846;2024-03-06T14:36:00;101125.0;;;11.53;71.2
79118;BME280;68523;51.336;-0.846;2024-03-06T14:39:00;101125.0;;;11.40;71.2
79118;BME280;68523;51.336;-0.846;2024-03-06T14:42:00;101125.0;;;11.10;70.8
79118;BME280;68523;51.336;-0.846;2024-03-06T14:45:00;101125.0;;;11.61;71.2
79118;BME280;68523;51.336;-0.846;2024-03-06T14:48:00;101125.0;;;11.61;70.7
79118;BME280;68523;51.336;-0.846;2024-03-06T14:51:00;101125.0;;;11.66;68.6
79118;BME280;68523;51.336;-0.846;2024-03-06T14:54:00;101115.0;;;11.98;67.9
79118;BME280;68523;51.336;-0.846;2024-03-06T14:57:00;101115.0;;;12.26;68.3
79118;BME280;68523;51.336;-0.846;2024-03-06T15:00:00;101115.0;;;12.43;68.8
79118;BME280;68523;51.336;-0.846;2024-03-06T15:03:00;101115.0;;;12.07;68.8
79118;BME280;68523;51.336;-0.846;2024-03-06T15:06:00;101125.0;;;11.39;69.6
79118;BME280;68523;51.336;-0.846;2024-03-06T15:09:00;101125.0;;;11.50;70.7
79118;BME280;68523;51.336;-0.846;2024-03-06T15:12:00;101125.0;;;11.48;71.4
79118;BME280;68523;51.336;-0.846;2024-03-06T15:15:01;101125.0;;;11.22;71.4
79118;BME280;68523;51.336;-0.846;2024-03-06T15:18:00;101125.0;;;11.11;70.8
79118;BME280;68523;51.336;-0.846;2024-03-06T15:21:00;101125.0;;;11.28;71.5
79118;BME280;68523;51.336;-0.846;2024-03-06T15:24:00;101125.0;;;11.65;70.6
79118;BME280;68523;51.336;-0.846;2024-03-06T15:27:00;101125.0;;;11.47;69.3
79118;BME280;68523;51.336;-0.846;2024-03-06T15:30:00;101125.0;;;11.50;70.0
79118;BME280;68523;51.336;-0.846;2024-03-06T15:33:00;101115.0;;;11.39;70.7
79118;BME280;68523;51.336;-0.846;2024-03-06T15:36:00;101115.0;;;11.94;70.0
79118;BME280;68523;51.336;-0.846;2024-03-06T15:39:00;101115.0;;;11.70;68.9
79118;BME280;68523;51.336;-0.846;2024-03-06T15:42:00;101125.0;;;11.93;68.9
79118;BME280;68523;51.336;-0.846;2024-03-06T15:45:00;101125.0;;;11.93;68.1
79118;BME280;68523;51.336;-0.846;2024-03-06T15:48:00;101125.0;;;11.71;64.8
79118;BME280;68523;51.336;-0.846;2024-03-06T15:51:00;101115.0;;;12.09;61.7
79118;BME280;68523;51.336;-0.846;2024-03-06T15:54:00;101115.0;;;11.81;58.9
79118;BME280;68523;51.336;-0.846;2024-03-06T15:57:00;101125.0;;;12.00;58.6
79118;BME280;68523;51.336;-0.846;2024-03-06T16:00:00;101125.0;;;11.90;56.4
79118;BME280;68523;51.336;-0.846;2024-03-06T16:03:00;101125.0;;;12.31;60.6
79118;BME280;68523;51.336;-0.846;2024-03-06T16:06:00;101125.0;;;12.13;59.5
79118;BME280;68523;51.336;-0.846;2024-03-06T16:09:00;101125.0;;;12.14;62.2